This demonstration page uses our WeatherBlox Daily Observations layout. Learn more.

Left ArrowRight Arrow

39.92423, -83.80882

Hourly Observations for January 9, 2020

Temp ( °F °C ) Dew Point ( °F °C ) Humidity (%) Winds ( mph kmh ) Pressure ( in mb ) Visibility ( mi km ) Precip ( " mm )
12:56 am 00:56 Clear 22 -5.6 17 -8.3 82 82 E 12 19 30.49 1032 10 16.0934 0 0
1:56 am 01:56 Clear 22 -5.6 17 -8.3 82 82 ESE 15 24 30.5 1033 10 16.0934 0 0
2:56 am 02:56 Clear 22 -5.6 17 -8.3 82 82 ESE 12 19 30.52 1033 10 16.0934 0 0
3:56 am 03:56 Clear 23 -5 18 -7.8 81 81 ESE 14 22 30.5 1033 10 16.0934 0 0
4:56 am 04:56 Clear 23 -5 18 -7.8 81 81 ESE 14 22 30.5 1033 10 16.0934 0 0
5:56 am 05:56 Clear 23 -5 18 -7.8 81 81 ESE 16 26 30.5 1033 10 16.0934 0 0
6:56 am 06:56 Clear 23 -5 18 -7.8 81 81 ESE 14 22 30.5 1033 10 16.0934 0 0
7:56 am 07:56 Clear 23 -5 18 -7.8 81 81 ESE 12 19 30.49 1033 10 16.0934 0 0
8:56 am 08:56 Sunny 26 -3.3 19 -7.2 75 75 SE 14 22 30.48 1032 10 16.0934 0 0
9:56 am 09:56 Sunny 32 0 21 -6.1 64 64 SE 17 28 30.47 1032 10 16.0934 0 0
10:56 am 10:56 Sunny 37 2.8 21 -6.1 52 52 SE 14 22 30.47 1032 10 16.0934 0 0
11:56 am 11:56 Sunny 40 4.4 26 -3.3 58 58 SSE 13 20 30.42 1030 10 16.0934 0 0
12:56 pm 12:56 Sunny 45 7.2 29 -1.7 54 54 SSE 15 24 30.37 1028 10 16.0934 0 0
1:56 pm 13:56 Sunny 50 10 30 -1.1 46 46 S 12 19 30.31 1026 10 16.0934 0 0
2:56 pm 14:56 Sunny 51 10.6 30 -1.1 44 44 S 12 19 30.27 1025 10 16.0934 0 0
3:56 pm 15:56 Sunny 51 10.6 31 -0.6 46 46 S 10 17 30.27 1025 10 16.0934 0 0
4:56 pm 16:56 Sunny 51 10.6 31 -0.6 46 46 S 12 19 30.27 1025 10 16.0934 0 0
5:56 pm 17:56 Clear 50 10 32 0 50 50 S 15 24 30.25 1025 10 16.0934 0 0
6:56 pm 18:56 Clear 48 8.9 32 0 54 54 S 13 20 30.26 1025 10 16.0934 0 0
7:56 pm 19:56 Clear 47 8.3 31 -0.6 54 54 S 12 19 30.25 1025 10 16.0934 0 0
8:56 pm 20:56 Clear 47 8.3 31 -0.6 54 54 S 12 19 30.24 1024 10 16.0934 0 0
9:56 pm 21:56 Clear 52 11.1 31 -0.6 45 45 S 18 30 30.21 1023 10 16.0934 0 0
10:56 pm 22:56 Mostly Clear 52 11.1 30 -1.1 43 43 SSW 14 22 30.21 1023 10 16.0934 0 0
11:56 pm 23:56 Partly Cloudy 52 11.1 31 -0.6 45 45 SSW 15 24 30.21 1023 10 16.0934 0 0

Powered by AerisWeather